createdAt,value
2019-04-03T00:01:15.181Z,81.26
2019-04-03T00:03:43.807Z,81.30
2019-04-03T00:06:12.305Z,81.32
2019-04-03T00:08:40.822Z,80.88
2019-04-03T00:11:10.609Z,80.97
2019-04-03T00:13:41.566Z,80.74
2019-04-03T00:16:09.889Z,81.00
2019-04-03T00:18:38.440Z,81.05
2019-04-03T00:21:07.158Z,80.16
2019-04-03T00:23:35.794Z,80.42
2019-04-03T00:26:04.385Z,80.30
2019-04-03T00:28:32.908Z,80.83
2019-04-03T00:31:01.393Z,80.87
2019-04-03T00:33:30.013Z,80.57
2019-04-03T00:35:58.521Z,81.76
2019-04-03T00:38:27.033Z,81.98
2019-04-03T00:40:55.784Z,82.03
2019-04-03T00:43:25.072Z,82.75
2019-04-03T00:45:54.539Z,81.93
2019-04-03T00:48:25.826Z,81.45
2019-04-03T00:50:56.377Z,81.68
2019-04-03T00:53:25.978Z,81.65
2019-04-03T00:55:56.433Z,81.71
2019-04-03T00:58:36.209Z,82.21
2019-04-03T01:01:09.692Z,82.43
2019-04-03T01:03:38.766Z,82.44
2019-04-03T01:06:07.670Z,82.34
2019-04-03T01:08:36.372Z,81.39
2019-04-03T01:11:05.066Z,80.15
2019-04-03T01:13:33.775Z,79.00
2019-04-03T01:16:03.025Z,79.72
2019-04-03T01:18:34.362Z,79.19
2019-04-03T01:21:02.048Z,79.39
2019-04-03T01:23:30.585Z,78.88
2019-04-03T01:25:59.203Z,79.19
2019-04-03T01:28:27.932Z,79.44
2019-04-03T01:30:56.453Z,79.40
2019-04-03T01:33:25.161Z,80.00
2019-04-03T01:35:53.887Z,81.10
2019-04-03T01:38:22.395Z,79.02
2019-04-03T01:40:51.232Z,77.99
2019-04-03T01:43:19.830Z,78.32
2019-04-03T01:45:48.444Z,78.90
2019-04-03T01:48:17.035Z,77.73
2019-04-03T01:50:45.680Z,76.74
2019-04-03T01:53:14.197Z,76.34
2019-04-03T01:55:42.900Z,76.16
2019-04-03T01:58:11.575Z,77.57
2019-04-03T02:00:40.102Z,77.59
2019-04-03T02:03:10.248Z,77.86
2019-04-03T02:05:39.197Z,78.22
2019-04-03T02:08:07.702Z,78.61
2019-04-03T02:10:36.443Z,76.28
2019-04-03T02:13:05.143Z,75.29
2019-04-03T02:15:33.745Z,75.06
2019-04-03T02:18:02.578Z,73.90
2019-04-03T02:20:31.092Z,74.48
2019-04-03T02:23:00.524Z,73.36
2019-04-03T02:25:31.336Z,71.59
2019-04-03T02:28:00.208Z,70.93
2019-04-03T02:30:28.829Z,71.88
2019-04-03T02:32:57.624Z,70.97
2019-04-03T02:35:26.462Z,70.89
2019-04-03T02:37:54.953Z,72.49
2019-04-03T02:40:23.479Z,71.87
2019-04-03T02:42:52.395Z,72.68
2019-04-03T02:45:24.009Z,71.09
2019-04-03T02:47:51.548Z,70.76
2019-04-03T02:50:23.516Z,72.50
2019-04-03T02:52:56.890Z,72.89
2019-04-03T02:55:23.553Z,73.39
2019-04-03T02:57:52.490Z,73.55
2019-04-03T03:00:21.103Z,72.41
2019-04-03T03:02:49.807Z,73.31
2019-04-03T03:05:18.807Z,72.04
2019-04-03T03:07:47.491Z,72.86
2019-04-03T03:10:19.320Z,71.76
2019-04-03T03:12:46.975Z,72.02
2019-04-03T03:15:15.710Z,73.99
2019-04-03T03:17:44.620Z,74.40
2019-04-03T03:20:15.402Z,74.41
2019-04-03T03:22:44.331Z,73.17
2019-04-03T03:25:13.058Z,73.35
2019-04-03T03:27:42.745Z,74.07
2019-04-03T03:30:34.292Z,73.20
2019-04-03T03:32:43.148Z,72.92
2019-04-03T03:35:16.806Z,73.01
2019-04-03T03:37:43.964Z,73.92
2019-04-03T03:40:15.149Z,73.54
2019-04-03T03:42:43.353Z,73.92
2019-04-03T03:45:12.155Z,74.53
2019-04-03T03:47:41.159Z,73.93
2019-04-03T03:50:09.976Z,74.76
2019-04-03T03:52:39.195Z,74.86
2019-04-03T03:55:08.407Z,75.08
2019-04-03T03:57:40.187Z,75.08
2019-04-03T04:00:09.557Z,75.76
2019-04-03T04:02:42.747Z,75.29
2019-04-03T04:05:10.809Z,74.73
2019-04-03T04:07:39.231Z,74.01
2019-04-03T04:10:08.680Z,75.18
2019-04-03T04:12:40.933Z,75.23
2019-04-03T04:15:08.566Z,75.67
2019-04-03T04:17:37.290Z,75.46
2019-04-03T04:20:06.371Z,75.39
2019-04-03T04:22:36.449Z,77.38
2019-04-03T04:25:05.645Z,76.66
2019-04-03T04:27:37.854Z,75.62
2019-04-03T04:30:05.761Z,75.75
2019-04-03T04:32:34.456Z,76.21
2019-04-03T04:35:03.686Z,76.95
2019-04-03T04:37:32.344Z,77.83
2019-04-03T04:40:00.989Z,78.49
2019-04-03T04:42:29.710Z,78.09
2019-04-03T04:44:58.342Z,78.56
2019-04-03T04:47:26.844Z,79.28
2019-04-03T04:49:55.336Z,78.05
2019-04-03T04:52:23.842Z,78.65
2019-04-03T04:54:52.325Z,79.11
2019-04-03T04:57:20.831Z,78.45
2019-04-03T04:59:49.360Z,77.03
2019-04-03T05:02:19.747Z,78.10
2019-04-03T05:04:48.310Z,77.84
2019-04-03T05:07:17.443Z,78.45
2019-04-03T05:09:46.008Z,75.58
2019-04-03T05:12:14.501Z,75.08
2019-04-03T05:14:43.033Z,75.37
2019-04-03T05:17:11.662Z,76.20
2019-04-03T05:19:40.160Z,76.76
2019-04-03T05:22:08.745Z,75.56
2019-04-03T05:24:37.384Z,76.65
2019-04-03T05:27:07.923Z,76.11
2019-04-03T05:29:36.546Z,74.81
2019-04-03T05:32:05.444Z,74.49
2019-04-03T05:34:34.004Z,74.34
2019-04-03T05:37:02.969Z,74.71
2019-04-03T05:39:33.057Z,75.84
2019-04-03T05:42:01.568Z,75.62
2019-04-03T05:44:32.912Z,74.20
2019-04-03T05:47:00.634Z,73.66
2019-04-03T05:49:29.610Z,73.58
2019-04-03T05:51:58.242Z,73.45
2019-04-03T05:54:26.780Z,73.62
2019-04-03T05:56:55.399Z,74.05
2019-04-03T05:59:24.176Z,73.97
2019-04-03T06:01:52.867Z,74.59
2019-04-03T06:04:21.403Z,73.65
2019-04-03T06:06:49.845Z,73.83
2019-04-03T06:09:18.340Z,72.99
2019-04-03T06:11:46.852Z,73.30
2019-04-03T06:14:16.816Z,74.40
2019-04-03T06:16:46.103Z,74.80
2019-04-03T06:19:14.576Z,74.31
2019-04-03T06:21:45.722Z,73.34
2019-04-03T06:24:13.569Z,73.43
2019-04-03T06:26:44.113Z,74.27
2019-04-03T06:29:12.836Z,74.58
2019-04-03T06:31:41.334Z,75.38
2019-04-03T06:34:09.817Z,75.03
2019-04-03T06:36:38.342Z,75.33
2019-04-03T06:39:07.864Z,75.76
2019-04-03T06:41:36.365Z,77.77
2019-04-03T06:44:05.140Z,79.35
2019-04-03T06:46:33.694Z,78.61
2019-04-03T06:49:02.441Z,79.64
2019-04-03T06:51:31.130Z,79.86
2019-04-03T06:53:59.984Z,80.69
2019-04-03T06:56:28.631Z,81.01
2019-04-03T06:58:57.161Z,81.54
2019-04-03T07:01:25.679Z,80.67
2019-04-03T07:03:54.191Z,81.95
2019-04-03T07:06:23.102Z,81.91
2019-04-03T07:08:51.587Z,81.57
2019-04-03T07:11:23.749Z,81.37
2019-04-03T07:13:53.222Z,81.03
2019-04-03T07:16:21.152Z,82.15
2019-04-03T07:18:49.657Z,82.55
2019-04-03T07:21:18.423Z,83.82
2019-04-03T07:23:47.104Z,83.49
2019-04-03T07:26:15.608Z,84.49
2019-04-03T07:28:44.127Z,84.52
2019-04-03T07:31:12.631Z,84.09
2019-04-03T07:33:41.220Z,83.92
2019-04-03T07:36:11.325Z,84.58
2019-04-03T07:38:40.139Z,83.87
2019-04-03T07:41:08.764Z,83.55
2019-04-03T07:43:37.282Z,83.87
2019-04-03T07:46:05.801Z,83.63
2019-04-03T07:48:35.813Z,82.84
2019-04-03T07:51:05.262Z,81.74
2019-04-03T07:53:33.712Z,82.67
2019-04-03T07:56:02.221Z,83.26
2019-04-03T07:58:32.088Z,83.06
2019-04-03T08:01:01.236Z,84.59
2019-04-03T08:03:29.967Z,83.73
2019-04-03T08:05:58.710Z,85.34
2019-04-03T08:08:27.561Z,84.00
2019-04-03T08:10:56.495Z,86.12
2019-04-03T08:13:25.178Z,87.91
2019-04-03T08:15:53.775Z,87.31
2019-04-03T08:18:22.362Z,85.10
2019-04-03T08:20:51.097Z,83.19
2019-04-03T08:23:19.869Z,85.07
2019-04-03T08:25:49.166Z,85.17
2019-04-03T08:28:17.943Z,83.52
2019-04-03T08:30:46.835Z,82.76
2019-04-03T08:33:18.278Z,82.79
2019-04-03T08:35:45.804Z,84.21
2019-04-03T08:38:14.388Z,83.12
2019-04-03T08:40:43.007Z,84.17
2019-04-03T08:43:11.871Z,83.78
2019-04-03T08:45:40.655Z,84.14
2019-04-03T08:48:09.160Z,83.76
2019-04-03T08:50:37.932Z,82.68
2019-04-03T08:53:08.628Z,82.68
2019-04-03T08:55:37.316Z,83.02
2019-04-03T08:58:05.845Z,79.61
2019-04-03T09:00:34.452Z,81.73
2019-04-03T09:03:04.074Z,85.06
2019-04-03T09:05:33.245Z,83.25
2019-04-03T09:08:01.988Z,83.01
2019-04-03T09:10:32.673Z,80.85
2019-04-03T09:13:01.700Z,79.19
2019-04-03T09:15:31.612Z,78.88
2019-04-03T09:18:00.111Z,79.77
2019-04-03T09:20:28.985Z,81.20
2019-04-03T09:22:57.603Z,78.80
2019-04-03T09:25:26.113Z,75.67
2019-04-03T09:27:55.023Z,74.62
2019-04-03T09:30:24.452Z,75.10
2019-04-03T09:32:53.982Z,74.33
2019-04-03T09:35:23.324Z,77.34
2019-04-03T09:37:52.245Z,78.96
2019-04-03T09:40:20.858Z,78.36
2019-04-03T09:42:51.255Z,80.53
2019-04-03T09:45:20.265Z,78.41
2019-04-03T09:47:49.053Z,75.66
2019-04-03T09:50:17.952Z,75.69
2019-04-03T09:52:49.634Z,74.79
2019-04-03T09:55:17.507Z,75.08
2019-04-03T09:57:46.139Z,74.64
2019-04-03T10:00:16.756Z,76.68
2019-04-03T10:02:45.421Z,73.61
2019-04-03T10:05:14.537Z,78.10
2019-04-03T10:07:43.139Z,74.89
2019-04-03T10:10:14.013Z,74.30
2019-04-03T10:12:47.569Z,74.71
2019-04-03T10:15:17.644Z,74.38
2019-04-03T10:17:45.502Z,75.42
2019-04-03T10:20:15.092Z,77.67
2019-04-03T10:22:45.263Z,78.10
2019-04-03T10:25:14.080Z,75.20
2019-04-03T10:27:43.624Z,76.16
2019-04-03T10:30:13.394Z,75.04
2019-04-03T10:32:41.896Z,75.93
2019-04-03T10:35:10.805Z,75.09
2019-04-03T10:37:39.431Z,76.97
2019-04-03T10:40:09.075Z,76.91
2019-04-03T10:42:38.089Z,76.47
2019-04-03T10:45:09.225Z,75.25
2019-04-03T10:47:43.091Z,72.50
2019-04-03T10:50:08.869Z,74.99
2019-04-03T10:52:37.376Z,75.36
2019-04-03T10:55:06.474Z,74.49
2019-04-03T10:57:35.551Z,72.84
2019-04-03T11:00:06.047Z,72.29
2019-04-03T11:02:34.736Z,74.43
2019-04-03T11:05:05.498Z,73.53
2019-04-03T11:07:34.092Z,74.65
2019-04-03T11:10:04.307Z,74.22
2019-04-03T11:12:33.300Z,71.66
2019-04-03T11:15:02.700Z,73.50
2019-04-03T11:17:31.349Z,72.25
2019-04-03T11:19:59.959Z,72.18
2019-04-03T11:22:39.731Z,71.57
2019-04-03T11:24:58.878Z,72.78
2019-04-03T11:27:40.725Z,70.32
2019-04-03T11:29:58.182Z,69.63
2019-04-03T11:32:26.776Z,70.45
2019-04-03T11:34:56.353Z,70.34
2019-04-03T11:37:26.296Z,71.85
2019-04-03T11:40:02.482Z,73.19
2019-04-03T11:42:29.196Z,74.27
2019-04-03T11:44:55.797Z,71.15
2019-04-03T11:47:24.613Z,72.04
2019-04-03T11:49:53.300Z,70.51
2019-04-03T11:52:21.952Z,69.49
2019-04-03T11:54:52.809Z,70.31
2019-04-03T11:57:20.966Z,69.03
2019-04-03T11:59:49.673Z,68.73
2019-04-03T12:02:18.875Z,66.79
2019-04-03T12:04:47.563Z,66.83
2019-04-03T12:07:16.271Z,67.64
2019-04-03T12:09:44.995Z,66.80
2019-04-03T12:12:13.612Z,68.07
2019-04-03T12:14:42.345Z,67.45
2019-04-03T12:17:11.035Z,67.50
2019-04-03T12:19:39.566Z,67.10
2019-04-03T12:22:08.059Z,66.74
2019-04-03T12:24:36.565Z,66.33
2019-04-03T12:27:05.691Z,65.20
2019-04-03T12:29:34.276Z,63.76
2019-04-03T12:32:03.945Z,62.90
2019-04-03T12:34:32.573Z,62.45
2019-04-03T12:37:01.344Z,61.28
2019-04-03T12:39:29.945Z,60.24
2019-04-03T12:41:58.659Z,59.23
2019-04-03T12:44:27.673Z,60.38
2019-04-03T12:46:56.209Z,61.56
2019-04-03T12:49:24.832Z,60.04
2019-04-03T12:51:53.583Z,60.29
2019-04-03T12:54:22.260Z,57.88
2019-04-03T12:56:50.757Z,57.51
2019-04-03T12:59:20.436Z,58.61
2019-04-03T13:01:50.644Z,59.17
2019-04-03T13:04:19.709Z,61.37
2019-04-03T13:06:48.252Z,61.93
2019-04-03T13:09:17.413Z,62.26
2019-04-03T13:11:46.439Z,63.90
2019-04-03T13:14:24.252Z,63.77
2019-04-03T13:16:47.124Z,65.27
2019-04-03T13:19:16.207Z,64.37
2019-04-03T13:21:44.887Z,65.18
2019-04-03T13:24:15.978Z,64.09
2019-04-03T13:26:43.909Z,62.02
2019-04-03T13:29:12.399Z,62.00
2019-04-03T13:31:41.167Z,61.57
2019-04-03T13:34:11.190Z,62.35
2019-04-03T13:36:40.128Z,63.17
2019-04-03T13:39:09.183Z,63.10
2019-04-03T13:41:37.861Z,65.04
2019-04-03T13:44:06.584Z,63.67
2019-04-03T13:46:36.575Z,65.15
2019-04-03T13:49:05.954Z,63.59
2019-04-03T13:51:34.557Z,63.52
2019-04-03T13:54:06.530Z,63.99
2019-04-03T13:56:33.993Z,61.87
2019-04-03T13:59:02.700Z,63.56
2019-04-03T14:01:31.599Z,61.76
2019-04-03T14:04:00.454Z,61.97
2019-04-03T14:06:29.085Z,62.49
2019-04-03T14:08:57.619Z,62.85
2019-04-03T14:11:26.585Z,62.32
2019-04-03T14:13:55.221Z,62.10
2019-04-03T14:16:23.782Z,62.74
2019-04-03T14:18:52.228Z,63.68
2019-04-03T14:21:21.067Z,62.12
2019-04-03T14:23:49.767Z,62.45
2019-04-03T14:26:18.325Z,62.72
2019-04-03T14:28:46.847Z,61.63
2019-04-03T14:31:17.492Z,60.84
2019-04-03T14:33:46.985Z,60.01
2019-04-03T14:36:18.485Z,61.21
2019-04-03T14:38:46.957Z,60.11
2019-04-03T14:41:18.587Z,58.12
2019-04-03T14:43:46.298Z,59.86
2019-04-03T14:46:17.303Z,59.09
2019-04-03T14:48:45.225Z,57.82
2019-04-03T14:51:13.885Z,58.72
2019-04-03T14:53:42.390Z,56.73
2019-04-03T14:56:11.041Z,56.49
2019-04-03T14:58:39.559Z,57.22
2019-04-03T15:01:08.064Z,56.63
2019-04-03T15:03:37.111Z,57.16
2019-04-03T15:06:06.166Z,57.25
2019-04-03T15:08:34.686Z,57.15
2019-04-03T15:11:03.849Z,57.50
2019-04-03T15:13:32.416Z,57.66
2019-04-03T15:16:01.245Z,57.88
2019-04-03T15:18:30.225Z,56.78
2019-04-03T15:20:58.733Z,57.99
2019-04-03T15:23:27.238Z,58.49
2019-04-03T15:25:55.839Z,59.62
2019-04-03T15:28:24.379Z,58.33
2019-04-03T15:30:52.860Z,57.85
2019-04-03T15:33:24.330Z,57.87
2019-04-03T15:35:51.987Z,58.57
2019-04-03T15:38:20.977Z,58.25
2019-04-03T15:40:50.011Z,58.11
2019-04-03T15:43:19.081Z,58.00
2019-04-03T15:45:47.726Z,58.23
2019-04-03T15:48:16.477Z,58.97
2019-04-03T15:50:45.425Z,58.96
2019-04-03T15:53:13.997Z,59.01
2019-04-03T15:55:42.526Z,59.81
2019-04-03T15:58:11.020Z,59.51
2019-04-03T16:00:42.619Z,59.13
2019-04-03T16:03:10.627Z,59.05
2019-04-03T16:05:39.617Z,58.50
2019-04-03T16:08:10.020Z,55.34
2019-04-03T16:10:38.771Z,54.67
2019-04-03T16:13:07.266Z,54.36
2019-04-03T16:15:35.791Z,55.26
2019-04-03T16:18:07.031Z,55.91
2019-04-03T16:20:34.992Z,55.00
2019-04-03T16:23:04.388Z,55.04
2019-04-03T16:25:33.514Z,55.29
2019-04-03T16:28:02.647Z,55.57
2019-04-03T16:30:31.319Z,55.88
2019-04-03T16:33:03.474Z,55.96
2019-04-03T16:35:30.240Z,55.70
2019-04-03T16:37:59.124Z,55.67
2019-04-03T16:40:27.654Z,55.70
2019-04-03T16:42:56.597Z,56.34
2019-04-03T16:45:25.548Z,56.29
2019-04-03T16:47:54.321Z,55.97
2019-04-03T16:50:26.221Z,56.57
2019-04-03T16:52:53.239Z,55.57
2019-04-03T16:55:21.783Z,56.56
2019-04-03T16:57:53.120Z,55.61
2019-04-03T17:00:21.076Z,55.18
2019-04-03T17:02:49.669Z,55.36
2019-04-03T17:05:18.495Z,55.28
2019-04-03T17:07:47.364Z,57.70
2019-04-03T17:10:16.220Z,59.12
2019-04-03T17:12:45.683Z,60.82
2019-04-03T17:15:15.492Z,61.19
2019-04-03T17:17:45.674Z,64.12
2019-04-03T17:20:14.979Z,69.91
2019-04-03T17:22:45.490Z,70.66
2019-04-03T17:25:14.264Z,72.42
2019-04-03T17:27:54.070Z,73.16
2019-04-03T17:30:17.624Z,74.68
2019-04-03T17:32:46.167Z,77.03
2019-04-03T17:35:15.696Z,75.49
2019-04-03T17:37:45.088Z,76.06
2019-04-03T17:40:14.194Z,75.31
2019-04-03T17:42:42.816Z,74.02
2019-04-03T17:45:11.618Z,74.35
2019-04-03T17:47:40.198Z,75.19
2019-04-03T17:50:13.615Z,77.07
2019-04-03T17:52:42.364Z,77.88
2019-04-03T17:55:11.408Z,79.37
2019-04-03T17:57:40.115Z,81.45
2019-04-03T18:00:10.804Z,80.45
2019-04-03T18:02:39.460Z,81.07
2019-04-03T18:05:09.151Z,82.65
2019-04-03T18:07:38.226Z,83.69
2019-04-03T18:10:08.488Z,80.79
2019-04-03T18:12:37.579Z,83.36
2019-04-03T18:15:07.292Z,80.43
2019-04-03T18:17:36.070Z,80.48
2019-04-03T18:20:05.798Z,81.00
2019-04-03T18:22:34.359Z,80.95
2019-04-03T18:25:03.383Z,81.05
2019-04-03T18:27:33.410Z,82.55
2019-04-03T18:30:05.799Z,81.11
2019-04-03T18:32:34.400Z,82.96
2019-04-03T18:35:03.651Z,80.25
2019-04-03T18:37:32.673Z,80.60
2019-04-03T18:40:04.069Z,80.77
2019-04-03T18:42:32.696Z,81.80
2019-04-03T18:45:01.199Z,81.33
2019-04-03T18:47:40.559Z,83.13
2019-04-03T18:50:02.887Z,83.10
2019-04-03T18:52:31.185Z,82.42
2019-04-03T18:54:59.851Z,81.97
2019-04-03T18:57:28.542Z,83.62
2019-04-03T19:00:00.381Z,84.09
2019-04-03T19:02:27.645Z,82.95
2019-04-03T19:05:02.307Z,84.05
2019-04-03T19:07:26.812Z,84.42
2019-04-03T19:10:06.375Z,83.83
2019-04-03T19:12:35.508Z,82.81
2019-04-03T19:14:56.284Z,82.82
2019-04-03T19:17:25.452Z,84.10
2019-04-03T19:20:04.013Z,84.38
2019-04-03T19:22:25.671Z,84.33
2019-04-03T19:24:54.967Z,83.05
2019-04-03T19:27:23.472Z,84.37
2019-04-03T19:29:52.076Z,84.05
2019-04-03T19:32:20.744Z,84.26
2019-04-03T19:34:51.912Z,85.47
2019-04-03T19:37:19.879Z,84.78
2019-04-03T19:39:48.407Z,84.42
2019-04-03T19:42:17.040Z,84.68
2019-04-03T19:44:47.101Z,85.24
2019-04-03T19:47:16.150Z,84.64
2019-04-03T19:49:44.655Z,84.02
2019-04-03T19:52:13.255Z,84.44
2019-04-03T19:54:41.777Z,84.67
2019-04-03T19:57:10.348Z,85.52
2019-04-03T19:59:39.065Z,84.46
2019-04-03T20:02:09.296Z,86.27
2019-04-03T20:04:38.450Z,86.57
2019-04-03T20:07:07.353Z,85.23
2019-04-03T20:09:36.042Z,85.85
2019-04-03T20:12:06.793Z,86.89
2019-04-03T20:14:35.198Z,86.88
2019-04-03T20:17:03.754Z,86.45
2019-04-03T20:19:32.270Z,87.05
2019-04-03T20:22:00.824Z,87.50
2019-04-03T20:24:29.627Z,86.87
2019-04-03T20:26:58.272Z,87.13
2019-04-03T20:29:27.814Z,86.27
2019-04-03T20:31:57.412Z,86.78
2019-04-03T20:34:26.069Z,87.40
2019-04-03T20:36:55.046Z,87.97
2019-04-03T20:39:23.641Z,87.84
2019-04-03T20:41:52.271Z,87.54
2019-04-03T20:44:20.772Z,87.95
2019-04-03T20:46:49.307Z,88.38
2019-04-03T20:49:17.964Z,88.10
2019-04-03T20:51:48.578Z,88.58
2019-04-03T20:54:17.024Z,88.95
2019-04-03T20:56:57.118Z,87.55
2019-04-03T20:59:16.037Z,87.61
2019-04-03T21:01:44.552Z,86.67
2019-04-03T21:04:14.865Z,87.06
2019-04-03T21:06:43.985Z,87.81
2019-04-03T21:09:12.783Z,88.03
2019-04-03T21:11:41.475Z,88.26
2019-04-03T21:14:11.369Z,89.22
2019-04-03T21:16:40.515Z,87.76
2019-04-03T21:19:09.066Z,87.17
2019-04-03T21:21:37.786Z,87.03
2019-04-03T21:24:06.299Z,87.09
2019-04-03T21:26:37.547Z,88.60
2019-04-03T21:29:05.234Z,88.53
2019-04-03T21:31:33.885Z,87.79
2019-04-03T21:34:02.718Z,89.78
2019-04-03T21:36:31.243Z,90.48
2019-04-03T21:38:59.750Z,90.33
2019-04-03T21:41:28.252Z,90.41
2019-04-03T21:43:59.641Z,90.70
2019-04-03T21:46:27.187Z,91.14
2019-04-03T21:48:55.792Z,91.23
2019-04-03T21:51:24.406Z,90.58
2019-04-03T21:53:55.833Z,90.84
2019-04-03T21:56:23.671Z,91.02
2019-04-03T21:58:52.163Z,90.61
2019-04-03T22:01:23.375Z,91.00
2019-04-03T22:03:52.098Z,91.57
2019-04-03T22:06:20.785Z,91.15
2019-04-03T22:08:51.481Z,90.64
2019-04-03T22:11:20.204Z,91.03
2019-04-03T22:13:48.907Z,90.83
2019-04-03T22:16:19.578Z,91.28
2019-04-03T22:18:47.968Z,91.29
2019-04-03T22:21:16.460Z,91.41
2019-04-03T22:23:45.003Z,91.99
2019-04-03T22:26:13.627Z,92.04
2019-04-03T22:28:42.107Z,91.65
2019-04-03T22:33:50.993Z,91.73
2019-04-03T22:36:20.233Z,91.95
2019-04-03T22:38:48.894Z,91.92
2019-04-03T22:41:17.557Z,91.23
2019-04-03T22:43:46.651Z,90.47
2019-04-03T22:46:15.329Z,90.81
2019-04-03T22:48:44.104Z,89.54
2019-04-03T22:51:12.778Z,90.24
2019-04-03T22:53:41.683Z,90.85
2019-04-03T22:56:10.887Z,90.66
2019-04-03T22:58:39.699Z,89.94
2019-04-03T23:01:08.242Z,89.65
2019-04-03T23:03:36.793Z,90.59
2019-04-03T23:06:05.477Z,89.21
2019-04-03T23:08:34.099Z,88.26
2019-04-03T23:11:03.383Z,88.21
2019-04-03T23:13:31.943Z,89.47
2019-04-03T23:16:00.470Z,89.95
2019-04-03T23:18:29.011Z,89.61
2019-04-03T23:20:57.551Z,89.52
2019-04-03T23:23:27.610Z,90.14
2019-04-03T23:25:56.209Z,90.62
2019-04-03T23:28:24.960Z,91.38
2019-04-03T23:30:53.481Z,90.88
2019-04-03T23:33:22.273Z,91.31
2019-04-03T23:35:51.155Z,91.64
2019-04-03T23:38:20.176Z,91.45
2019-04-03T23:40:48.707Z,91.95
2019-04-03T23:43:17.261Z,91.99
2019-04-03T23:45:45.785Z,91.67
2019-04-03T23:48:17.578Z,91.85
2019-04-03T23:50:45.441Z,91.92
2019-04-03T23:53:13.971Z,91.90
2019-04-03T23:55:42.498Z,91.47
2019-04-03T23:58:11.489Z,91.76
